createdAt,value
2024-03-16T00:00:51.027Z,97451.38
2024-03-16T00:03:17.859Z,97456.50
2024-03-16T00:05:44.570Z,97459.03
2024-03-16T00:08:11.834Z,97468.09
2024-03-16T00:10:38.725Z,97468.31
2024-03-16T00:13:08.115Z,97461.81
2024-03-16T00:15:34.991Z,97468.31
2024-03-16T00:18:01.789Z,97455.38
2024-03-16T00:20:28.724Z,97469.47
2024-03-16T00:22:56.094Z,97464.94
2024-03-16T00:25:22.853Z,97460.84
2024-03-16T00:27:53.653Z,97461.91
2024-03-16T00:30:21.564Z,97461.78
2024-03-16T00:32:48.646Z,97460.94
2024-03-16T00:35:15.418Z,97457.31
2024-03-16T00:37:42.269Z,97462.56
2024-03-16T00:40:10.630Z,97458.22
2024-03-16T00:42:37.552Z,97460.69
2024-03-16T00:45:06.339Z,97465.78
2024-03-16T00:47:33.094Z,97463.56
2024-03-16T00:49:59.832Z,97450.91
2024-03-16T00:52:27.435Z,97454.81
2024-03-16T00:54:54.224Z,97458.78
2024-03-16T00:57:20.968Z,97459.81
2024-03-16T00:59:48.297Z,97462.28
2024-03-16T01:02:14.999Z,97462.72
2024-03-16T01:04:41.715Z,97455.16
2024-03-16T01:07:08.750Z,97457.69
2024-03-16T01:09:35.504Z,97461.97
2024-03-16T01:12:02.237Z,97460.56
2024-03-16T01:14:30.070Z,97464.16
2024-03-16T01:16:56.780Z,97460.06
2024-03-16T01:19:23.510Z,97469.69
2024-03-16T01:21:51.210Z,97469.13
2024-03-16T01:24:18.397Z,97461.13
2024-03-16T01:26:45.192Z,97464.81
2024-03-16T01:29:17.154Z,97458.09
2024-03-16T01:31:44.050Z,97459.25
2024-03-16T01:34:10.975Z,97456.78
2024-03-16T01:36:37.843Z,97459.69
2024-03-16T01:39:04.796Z,97458.91
2024-03-16T01:41:31.524Z,97446.66
2024-03-16T01:44:11.625Z,97460.59
2024-03-16T01:46:42.921Z,97460.81
2024-03-16T01:49:10.565Z,97461.28
2024-03-16T01:51:38.612Z,97457.78
2024-03-16T01:54:06.756Z,97469.63
2024-03-16T01:56:35.270Z,97465.56
2024-03-16T01:59:02.021Z,97468.22
2024-03-16T02:01:29.284Z,97475.66
2024-03-16T02:03:58.908Z,97473.44
2024-03-16T02:06:28.294Z,97481.00
2024-03-16T02:08:55.502Z,97476.47
2024-03-16T02:11:23.354Z,97487.38
2024-03-16T02:13:50.592Z,97480.38
2024-03-16T02:16:17.439Z,97473.28
2024-03-16T02:18:44.451Z,97477.16
2024-03-16T02:21:11.877Z,97483.06
2024-03-16T02:23:40.879Z,97491.88
2024-03-16T02:26:12.699Z,97488.41
2024-03-16T02:28:39.599Z,97490.88
2024-03-16T02:31:06.833Z,97499.69
2024-03-16T02:33:33.962Z,97498.88
2024-03-16T02:36:00.788Z,97493.16
2024-03-16T02:38:27.512Z,97502.56
2024-03-16T02:40:55.052Z,97497.22
2024-03-16T02:43:21.793Z,97504.41
2024-03-16T02:45:48.596Z,97500.13
2024-03-16T02:48:16.034Z,97503.03
2024-03-16T02:50:42.764Z,97493.81
2024-03-16T02:53:09.706Z,97504.84
2024-03-16T02:55:37.352Z,97515.53
2024-03-16T02:58:04.323Z,97502.19
2024-03-16T03:00:31.180Z,97496.84
2024-03-16T03:02:58.514Z,97489.06
2024-03-16T03:05:25.356Z,97502.78
2024-03-16T03:07:53.969Z,97503.47
2024-03-16T03:10:20.989Z,97509.00
2024-03-16T03:12:47.774Z,97507.25
2024-03-16T03:15:14.597Z,97508.88
2024-03-16T03:17:42.128Z,97510.50
2024-03-16T03:20:10.475Z,97508.88
2024-03-16T03:22:37.567Z,97507.25
2024-03-16T03:25:07.124Z,97495.88
2024-03-16T03:27:35.052Z,97505.22
2024-03-16T03:30:02.035Z,97506.06
2024-03-16T03:32:29.512Z,97503.75
2024-03-16T03:34:56.341Z,97510.50
2024-03-16T03:37:23.136Z,97503.75
2024-03-16T03:39:54.062Z,97507.69
2024-03-16T03:42:26.172Z,97500.34
2024-03-16T03:45:12.101Z,97508.72
2024-03-16T03:47:51.436Z,97504.41
2024-03-16T03:50:29.817Z,97516.25
2024-03-16T03:52:57.045Z,97521.59
2024-03-16T03:55:23.868Z,97512.19
2024-03-16T03:57:52.956Z,97501.97
2024-03-16T04:00:20.698Z,97513.81
2024-03-16T04:02:47.595Z,97513.00
2024-03-16T04:05:14.437Z,97510.13
2024-03-16T04:07:42.910Z,97502.78
2024-03-16T04:10:10.321Z,97504.34
2024-03-16T04:12:37.605Z,97503.97
2024-03-16T04:15:07.091Z,97512.34
2024-03-16T04:17:33.850Z,97513.38
2024-03-16T04:20:00.825Z,97510.94
2024-03-16T04:22:27.571Z,97519.41
2024-03-16T04:24:54.534Z,97529.41
2024-03-16T04:27:21.343Z,97526.94
2024-03-16T04:29:48.273Z,97526.13
2024-03-16T04:32:15.659Z,97531.09
2024-03-16T04:34:42.435Z,97526.56
2024-03-16T04:37:09.919Z,97533.31
2024-03-16T04:39:36.675Z,97529.03
2024-03-16T04:42:03.568Z,97538.06
2024-03-16T04:44:30.411Z,97524.13
2024-03-16T04:46:57.134Z,97526.78
2024-03-16T04:49:23.832Z,97520.41
2024-03-16T04:51:50.699Z,97524.25
2024-03-16T04:54:17.477Z,97522.22
2024-03-16T04:56:44.213Z,97527.69
2024-03-16T04:59:12.486Z,97528.28
2024-03-16T05:01:39.468Z,97525.19
2024-03-16T05:04:06.490Z,97527.19
2024-03-16T05:06:34.759Z,97531.66
2024-03-16T05:09:07.960Z,97519.25
2024-03-16T05:11:34.972Z,97522.88
2024-03-16T05:14:07.360Z,97521.59
2024-03-16T05:16:38.732Z,97524.56
2024-03-16T05:19:06.351Z,97518.78
2024-03-16T05:21:33.382Z,97521.16
2024-03-16T05:24:03.092Z,97515.38
2024-03-16T05:26:32.127Z,97519.13
2024-03-16T05:28:59.249Z,97512.06
2024-03-16T05:31:28.593Z,97517.75
2024-03-16T05:33:55.384Z,97525.13
2024-03-16T05:36:22.115Z,97527.13
2024-03-16T05:38:48.872Z,97517.22
2024-03-16T05:41:16.057Z,97528.03
2024-03-16T05:43:45.309Z,97525.53
2024-03-16T05:46:12.897Z,97525.66
2024-03-16T05:48:40.034Z,97524.38
2024-03-16T05:51:06.888Z,97523.84
2024-03-16T05:53:33.697Z,97516.84
2024-03-16T05:56:00.505Z,97532.47
2024-03-16T05:58:27.289Z,97532.13
2024-03-16T06:00:55.188Z,97530.88
2024-03-16T06:03:22.033Z,97528.19
2024-03-16T06:05:48.793Z,97536.34
2024-03-16T06:08:15.968Z,97535.88
2024-03-16T06:10:42.941Z,97543.22
2024-03-16T06:13:12.038Z,97535.06
2024-03-16T06:15:40.671Z,97541.13
2024-03-16T06:18:07.902Z,97556.38
2024-03-16T06:20:34.943Z,97543.34
2024-03-16T06:23:01.735Z,97550.56
2024-03-16T06:25:30.642Z,97550.09
2024-03-16T06:28:07.891Z,97550.59
2024-03-16T06:30:35.381Z,97557.47
2024-03-16T06:33:11.684Z,97546.28
2024-03-16T06:35:42.575Z,97550.22
2024-03-16T06:38:09.657Z,97558.94
2024-03-16T06:40:36.469Z,97552.06
2024-03-16T06:43:03.700Z,97547.16
2024-03-16T06:45:30.607Z,97560.75
2024-03-16T06:47:58.157Z,97549.94
2024-03-16T06:50:25.187Z,97556.91
2024-03-16T06:52:52.035Z,97564.56
2024-03-16T06:55:20.220Z,97560.34
2024-03-16T06:57:47.203Z,97559.41
2024-03-16T07:00:15.530Z,97548.97
2024-03-16T07:02:42.446Z,97556.09
2024-03-16T07:05:10.712Z,97555.69
2024-03-16T07:07:37.593Z,97566.63
2024-03-16T07:10:09.607Z,97572.91
2024-03-16T07:12:36.632Z,97574.13
2024-03-16T07:15:05.245Z,97568.75
2024-03-16T07:17:32.628Z,97583.50
2024-03-16T07:19:59.932Z,97575.78
2024-03-16T07:22:26.663Z,97578.06
2024-03-16T07:24:53.649Z,97581.19
2024-03-16T07:27:20.386Z,97574.59
2024-03-16T07:29:47.095Z,97580.09
2024-03-16T07:32:14.089Z,97583.56
2024-03-16T07:34:40.814Z,97583.47
2024-03-16T07:37:07.679Z,97572.56
2024-03-16T07:39:34.528Z,97578.31
2024-03-16T07:42:01.958Z,97578.72
2024-03-16T07:44:30.455Z,97576.75
2024-03-16T07:46:57.166Z,97571.00
2024-03-16T07:49:24.582Z,97572.69
2024-03-16T07:51:51.381Z,97574.13
2024-03-16T07:54:18.752Z,97571.09
2024-03-16T07:56:46.704Z,97569.81
2024-03-16T07:59:15.181Z,97571.25
2024-03-16T08:01:42.211Z,97566.19
2024-03-16T08:04:09.521Z,97571.91
2024-03-16T08:06:36.321Z,97580.06
2024-03-16T08:09:03.720Z,97569.91
2024-03-16T08:11:31.463Z,97558.56
2024-03-16T08:13:58.234Z,97571.09
2024-03-16T08:16:24.972Z,97585.25
2024-03-16T08:18:51.787Z,97579.28
2024-03-16T08:21:18.603Z,97571.81
2024-03-16T08:23:45.351Z,97577.31
2024-03-16T08:26:13.767Z,97570.06
2024-03-16T08:28:40.866Z,97571.22
2024-03-16T08:31:08.655Z,97576.19
2024-03-16T08:33:35.578Z,97570.31
2024-03-16T08:36:02.471Z,97567.16
2024-03-16T08:38:31.724Z,97563.97
2024-03-16T08:40:59.490Z,97564.84
2024-03-16T08:43:26.405Z,97562.19
2024-03-16T08:45:53.325Z,97562.81
2024-03-16T08:48:20.117Z,97564.75
2024-03-16T08:50:47.292Z,97556.47
2024-03-16T08:53:14.560Z,97561.34
2024-03-16T08:55:41.909Z,97556.00
2024-03-16T08:58:09.184Z,97551.75
2024-03-16T09:00:36.531Z,97555.56
2024-03-16T09:03:03.505Z,97553.97
2024-03-16T09:05:30.318Z,97556.16
2024-03-16T09:07:57.029Z,97549.69
2024-03-16T09:10:23.769Z,97556.69
2024-03-16T09:12:50.600Z,97555.34
2024-03-16T09:15:17.948Z,97554.78
2024-03-16T09:17:44.830Z,97557.78
2024-03-16T09:20:12.306Z,97555.81
2024-03-16T09:22:39.936Z,97556.59
2024-03-16T09:25:07.913Z,97545.50
2024-03-16T09:27:35.481Z,97552.50
2024-03-16T09:30:06.347Z,97552.75
2024-03-16T09:32:34.575Z,97538.31
2024-03-16T09:35:01.736Z,97536.38
2024-03-16T09:37:29.059Z,97550.31
2024-03-16T09:39:56.328Z,97546.72
2024-03-16T09:42:24.106Z,97547.34
